Time;durP1;ratioP1;P1;durP2;ratioP2;P2;SDS_P1;SDS_P2;PMS_P1;PMS_P2;Temp;Humidity;BMP_temperature;BMP_pressure;BME280_temperature;BME280_humidity;BME280_pressure;Samples;Min_cycle;Max_cycle;Signal;HPM_P1;HPM_P2
2024/01/19 00:01:59;;;;;;;311.63;126.43;;;;;;;;;;5073088;28;20669;-49
2024/01/19 00:04:25;;;;;;;306.10;125.57;;;;;;;;;;5073006;28;20859;-48
2024/01/19 00:06:51;;;;;;;318.23;128.60;;;;;;;;;;5072231;28;20222;-49
2024/01/19 00:09:17;;;;;;;305.37;124.77;;;;;;;;;;5072595;28;20624;-49
2024/01/19 00:11:44;;;;;;;297.73;121.80;;;;;;;;;;5072789;28;20199;-49
2024/01/19 00:14:10;;;;;;;307.90;127.53;;;;;;;;;;5073088;28;20630;-49
2024/01/19 00:16:40;;;;;;;294.57;121.43;;;;;;;;;;5072512;28;20626;-50
2024/01/19 00:19:06;;;;;;;289.73;124.03;;;;;;;;;;5072366;28;20298;-49
2024/01/19 00:21:32;;;;;;;323.67;130.53;;;;;;;;;;5072500;28;20701;-49
2024/01/19 00:23:58;;;;;;;306.07;123.77;;;;;;;;;;5072444;28;20352;-49
2024/01/19 00:26:24;;;;;;;301.27;122.07;;;;;;;;;;5072501;28;20217;-49
2024/01/19 00:28:50;;;;;;;312.10;127.73;;;;;;;;;;5072963;28;20201;-49
2024/01/19 00:31:16;;;;;;;297.23;122.47;;;;;;;;;;5072484;28;20225;-49
2024/01/19 00:33:42;;;;;;;308.00;125.87;;;;;;;;;;5072523;28;20218;-49
2024/01/19 00:36:08;;;;;;;312.07;127.47;;;;;;;;;;5073508;28;20375;-49
2024/01/19 00:38:35;;;;;;;300.43;123.00;;;;;;;;;;5072747;28;20211;-49
2024/01/19 00:41:01;;;;;;;298.60;122.93;;;;;;;;;;5073044;28;20600;-49
2024/01/19 00:43:27;;;;;;;301.43;124.20;;;;;;;;;;5072796;28;20198;-49
2024/01/19 00:45:53;;;;;;;320.53;130.03;;;;;;;;;;5072689;28;20202;-50
2024/01/19 00:48:19;;;;;;;317.60;127.07;;;;;;;;;;5071838;28;20218;-49
2024/01/19 00:50:45;;;;;;;325.80;132.77;;;;;;;;;;5072572;28;20206;-49
2024/01/19 00:53:11;;;;;;;302.17;123.40;;;;;;;;;;5072585;28;20178;-49
2024/01/19 00:55:37;;;;;;;300.93;122.97;;;;;;;;;;5072588;28;20252;-49
2024/01/19 00:58:03;;;;;;;307.83;124.27;;;;;;;;;;5072540;28;20291;-49
2024/01/19 01:00:29;;;;;;;301.77;123.33;;;;;;;;;;5071914;28;20214;-49
2024/01/19 01:02:57;;;;;;;308.13;125.43;;;;;;;;;;5072479;28;20309;-49
2024/01/19 01:05:22;;;;;;;307.93;125.37;;;;;;;;;;5071978;28;20300;-50
2024/01/19 01:07:48;;;;;;;305.60;125.00;;;;;;;;;;5072316;28;20293;-50
2024/01/19 01:10:14;;;;;;;298.50;122.67;;;;;;;;;;5070555;28;20210;-49
2024/01/19 01:12:40;;;;;;;299.63;123.10;;;;;;;;;;5072093;28;20669;-48
2024/01/19 01:15:06;;;;;;;296.20;120.83;;;;;;;;;;5072298;28;20440;-49
2024/01/19 01:17:32;;;;;;;317.63;130.13;;;;;;;;;;5072375;28;20223;-49
2024/01/19 01:19:58;;;;;;;303.90;123.40;;;;;;;;;;5072971;28;20167;-49
2024/01/19 01:22:24;;;;;;;307.23;125.70;;;;;;;;;;5072522;28;20198;-49
2024/01/19 01:24:50;;;;;;;315.20;128.50;;;;;;;;;;5072361;28;20562;-49
2024/01/19 01:27:16;;;;;;;300.07;124.70;;;;;;;;;;5070764;28;20558;-49
2024/01/19 01:29:42;;;;;;;307.47;124.40;;;;;;;;;;5072128;28;20233;-50
2024/01/19 01:32:08;;;;;;;304.33;124.77;;;;;;;;;;5071933;28;20167;-50
2024/01/19 01:34:34;;;;;;;298.97;120.97;;;;;;;;;;5072380;28;20171;-49
2024/01/19 01:37:00;;;;;;;295.17;121.13;;;;;;;;;;5071538;28;20207;-50
2024/01/19 01:39:26;;;;;;;321.83;129.10;;;;;;;;;;5071495;28;20581;-49
2024/01/19 01:41:52;;;;;;;312.23;126.23;;;;;;;;;;5072177;28;20300;-49
2024/01/19 01:44:18;;;;;;;317.77;127.27;;;;;;;;;;5072599;28;20221;-49
2024/01/19 01:46:44;;;;;;;293.40;120.50;;;;;;;;;;5075482;28;20681;-49
2024/01/19 01:49:10;;;;;;;304.20;125.73;;;;;;;;;;5075147;28;20223;-50
2024/01/19 01:51:36;;;;;;;297.97;121.43;;;;;;;;;;5075095;28;20309;-49
2024/01/19 01:54:05;;;;;;;313.00;125.87;;;;;;;;;;5075041;28;20222;-49
2024/01/19 01:56:32;;;;;;;294.20;119.90;;;;;;;;;;5075132;28;20643;-50
2024/01/19 01:58:58;;;;;;;304.67;125.63;;;;;;;;;;5075834;28;20179;-49
2024/01/19 02:01:24;;;;;;;314.70;126.53;;;;;;;;;;5075260;28;20210;-49
2024/01/19 02:03:51;;;;;;;314.70;128.33;;;;;;;;;;5075321;28;20711;-49
2024/01/19 02:06:17;;;;;;;305.97;125.20;;;;;;;;;;5075513;28;20219;-49
2024/01/19 02:08:43;;;;;;;312.03;125.33;;;;;;;;;;5074892;28;20225;-49
2024/01/19 02:11:09;;;;;;;294.63;123.63;;;;;;;;;;5075288;28;20174;-49
2024/01/19 02:13:35;;;;;;;295.13;122.03;;;;;;;;;;5075115;28;20201;-49
2024/01/19 02:16:01;;;;;;;292.67;121.93;;;;;;;;;;5075609;28;20274;-48
2024/01/19 02:18:27;;;;;;;310.53;126.97;;;;;;;;;;5074133;28;20219;-48
2024/01/19 02:20:56;;;;;;;316.87;130.97;;;;;;;;;;5074683;28;20218;-49
2024/01/19 02:23:25;;;;;;;321.43;130.27;;;;;;;;;;5074904;28;20206;-49
2024/01/19 02:25:51;;;;;;;309.03;126.97;;;;;;;;;;5075094;28;20175;-49
2024/01/19 02:28:18;;;;;;;302.63;125.13;;;;;;;;;;5075162;28;20339;-50
2024/01/19 02:30:44;;;;;;;298.03;121.53;;;;;;;;;;5074902;28;20207;-49
2024/01/19 02:33:11;;;;;;;276.47;115.27;;;;;;;;;;5075046;28;20302;-49
2024/01/19 02:35:37;;;;;;;314.73;126.57;;;;;;;;;;5075185;28;20249;-49
2024/01/19 02:38:03;;;;;;;293.60;120.63;;;;;;;;;;5074263;28;20203;-49
2024/01/19 02:40:29;;;;;;;310.77;125.37;;;;;;;;;;5075018;28;20177;-50
2024/01/19 02:42:55;;;;;;;307.60;124.80;;;;;;;;;;5074667;28;20211;-49
2024/01/19 02:45:21;;;;;;;317.20;130.70;;;;;;;;;;5074769;28;20526;-49
2024/01/19 02:47:47;;;;;;;308.00;125.17;;;;;;;;;;5073968;28;20222;-49
2024/01/19 02:50:13;;;;;;;318.03;129.57;;;;;;;;;;5074363;28;20239;-48
2024/01/19 02:52:39;;;;;;;286.50;118.03;;;;;;;;;;5074446;28;20280;-49
2024/01/19 02:55:05;;;;;;;313.93;126.23;;;;;;;;;;5074212;28;20293;-49
2024/01/19 02:57:31;;;;;;;348.37;142.33;;;;;;;;;;5069441;28;20349;-52
2024/01/19 02:59:57;;;;;;;348.70;144.73;;;;;;;;;;5048586;28;20771;-52
2024/01/19 03:02:23;;;;;;;360.57;150.33;;;;;;;;;;5055262;28;20226;-51
2024/01/19 03:04:49;;;;;;;329.03;134.53;;;;;;;;;;5051271;28;20252;-51
2024/01/19 03:07:15;;;;;;;332.17;136.27;;;;;;;;;;5055845;28;20245;-52
2024/01/19 03:09:41;;;;;;;327.03;134.33;;;;;;;;;;5064428;28;20668;-51
2024/01/19 03:12:07;;;;;;;343.73;140.03;;;;;;;;;;5050115;28;20261;-51
2024/01/19 03:14:33;;;;;;;371.13;148.33;;;;;;;;;;5057832;28;20210;-51
2024/01/19 03:16:59;;;;;;;335.13;137.37;;;;;;;;;;5048962;28;20216;-52
2024/01/19 03:19:25;;;;;;;347.43;138.60;;;;;;;;;;5053911;28;20187;-51
2024/01/19 03:21:52;;;;;;;366.57;151.47;;;;;;;;;;5053995;28;20207;-51
2024/01/19 03:24:18;;;;;;;335.00;137.43;;;;;;;;;;5052056;28;20223;-50
2024/01/19 03:26:44;;;;;;;346.57;144.67;;;;;;;;;;5051783;28;20233;-51
2024/01/19 03:29:10;;;;;;;324.60;134.43;;;;;;;;;;5055414;28;20199;-51
2024/01/19 03:31:36;;;;;;;394.77;165.80;;;;;;;;;;5058834;28;20186;-52
2024/01/19 03:34:02;;;;;;;331.73;133.60;;;;;;;;;;5057473;28;20264;-51
2024/01/19 03:36:28;;;;;;;368.43;149.27;;;;;;;;;;5042266;28;20491;-51
2024/01/19 03:38:54;;;;;;;335.23;137.30;;;;;;;;;;5040953;28;20230;-50
2024/01/19 03:41:20;;;;;;;452.97;199.23;;;;;;;;;;5054875;28;20219;-52
2024/01/19 03:43:46;;;;;;;329.97;136.37;;;;;;;;;;5047082;28;20206;-50
2024/01/19 03:46:12;;;;;;;344.80;141.23;;;;;;;;;;5053350;28;20866;-51
2024/01/19 03:48:38;;;;;;;348.97;147.20;;;;;;;;;;5057201;28;20231;-51
2024/01/19 03:51:04;;;;;;;348.77;142.53;;;;;;;;;;5049382;28;20230;-50
2024/01/19 03:53:30;;;;;;;361.23;148.03;;;;;;;;;;5052604;28;20218;-51
2024/01/19 03:55:56;;;;;;;351.93;145.10;;;;;;;;;;5053937;28;20265;-51
2024/01/19 03:58:22;;;;;;;352.17;143.77;;;;;;;;;;5052639;28;20304;-50
2024/01/19 04:00:48;;;;;;;381.13;157.93;;;;;;;;;;5055263;28;20241;-51
2024/01/19 04:03:15;;;;;;;317.27;130.53;;;;;;;;;;5055712;28;20211;-50
2024/01/19 04:05:41;;;;;;;338.90;140.33;;;;;;;;;;5059686;28;20576;-51
2024/01/19 04:08:07;;;;;;;345.80;142.83;;;;;;;;;;5047885;28;20206;-52
2024/01/19 04:10:33;;;;;;;452.03;199.03;;;;;;;;;;5045504;28;20709;-50
2024/01/19 04:12:59;;;;;;;389.07;159.17;;;;;;;;;;5043672;28;20878;-50
2024/01/19 04:15:25;;;;;;;383.87;153.30;;;;;;;;;;5050127;28;20315;-50
2024/01/19 04:17:51;;;;;;;353.20;142.37;;;;;;;;;;5054050;28;20656;-51
2024/01/19 04:20:17;;;;;;;373.50;151.90;;;;;;;;;;5046941;28;20537;-50
2024/01/19 04:22:43;;;;;;;390.57;157.40;;;;;;;;;;5051731;28;20240;-51
2024/01/19 04:25:09;;;;;;;332.00;134.60;;;;;;;;;;5050542;28;20276;-51
2024/01/19 04:27:35;;;;;;;411.97;168.07;;;;;;;;;;5048711;28;20231;-51
2024/01/19 04:30:01;;;;;;;377.57;152.30;;;;;;;;;;5051273;28;20223;-50
2024/01/19 04:32:27;;;;;;;381.20;153.00;;;;;;;;;;5051234;28;20220;-51
2024/01/19 04:34:53;;;;;;;345.70;139.80;;;;;;;;;;5054654;28;20545;-51
2024/01/19 04:37:19;;;;;;;409.23;166.13;;;;;;;;;;5049277;28;20666;-51
2024/01/19 04:39:45;;;;;;;351.10;143.57;;;;;;;;;;5051973;28;20221;-50
2024/01/19 04:42:12;;;;;;;342.47;137.27;;;;;;;;;;5048435;28;20832;-51
2024/01/19 04:44:38;;;;;;;343.03;138.17;;;;;;;;;;5055482;28;20301;-51
2024/01/19 04:47:04;;;;;;;345.53;139.23;;;;;;;;;;5051495;28;20310;-51
2024/01/19 04:49:30;;;;;;;395.50;163.93;;;;;;;;;;5046341;28;20634;-51
2024/01/19 04:51:56;;;;;;;393.00;163.07;;;;;;;;;;5050554;28;20302;-51
2024/01/19 04:54:22;;;;;;;349.10;140.63;;;;;;;;;;5062097;28;20217;-51
2024/01/19 04:56:48;;;;;;;369.73;152.67;;;;;;;;;;5043215;28;20218;-51
2024/01/19 04:59:14;;;;;;;331.43;136.27;;;;;;;;;;5048949;28;20681;-51
2024/01/19 05:01:40;;;;;;;330.73;136.60;;;;;;;;;;5050938;28;20179;-51
2024/01/19 05:04:06;;;;;;;419.43;175.47;;;;;;;;;;5053375;28;20218;-50
2024/01/19 05:06:32;;;;;;;366.83;147.50;;;;;;;;;;5048520;28;20332;-50
2024/01/19 05:08:57;;;;;;;376.90;152.73;;;;;;;;;;5044137;28;20287;-50
2024/01/19 05:11:23;;;;;;;348.87;140.53;;;;;;;;;;5055532;28;20309;-50
2024/01/19 05:13:49;;;;;;;335.07;137.17;;;;;;;;;;5058676;28;20654;-50
2024/01/19 05:16:15;;;;;;;335.57;139.57;;;;;;;;;;5053962;28;20223;-51
2024/01/19 05:18:41;;;;;;;363.60;151.03;;;;;;;;;;5048032;28;20223;-50
2024/01/19 05:21:07;;;;;;;351.57;145.23;;;;;;;;;;5056217;28;20899;-51
2024/01/19 05:23:33;;;;;;;378.27;156.03;;;;;;;;;;5054412;28;20223;-50
2024/01/19 05:26:00;;;;;;;373.10;153.77;;;;;;;;;;5064332;28;20489;-51
2024/01/19 05:28:26;;;;;;;381.87;156.50;;;;;;;;;;5044932;28;20328;-51
2024/01/19 05:30:52;;;;;;;350.13;139.97;;;;;;;;;;5058236;28;20680;-52
2024/01/19 05:33:18;;;;;;;365.17;149.00;;;;;;;;;;5046293;28;20559;-50
2024/01/19 05:35:44;;;;;;;323.07;131.87;;;;;;;;;;5062117;28;20244;-50
2024/01/19 05:38:10;;;;;;;338.90;138.47;;;;;;;;;;5047839;28;20206;-51
2024/01/19 05:40:36;;;;;;;354.23;142.83;;;;;;;;;;5059387;28;20190;-51
2024/01/19 05:43:02;;;;;;;354.67;145.33;;;;;;;;;;5047668;28;20214;-51
2024/01/19 05:45:27;;;;;;;340.00;139.00;;;;;;;;;;5055886;28;20222;-51
2024/01/19 05:47:53;;;;;;;373.37;152.57;;;;;;;;;;5058627;28;20322;-50
2024/01/19 05:50:19;;;;;;;355.73;145.53;;;;;;;;;;5060615;28;20311;-50
2024/01/19 05:52:45;;;;;;;363.93;148.20;;;;;;;;;;5047553;28;20182;-50
2024/01/19 05:55:12;;;;;;;336.63;137.23;;;;;;;;;;5054289;28;20277;-50
2024/01/19 05:57:37;;;;;;;403.23;166.83;;;;;;;;;;5050253;28;20329;-51
2024/01/19 06:00:04;;;;;;;335.07;136.57;;;;;;;;;;5058737;28;20219;-50
2024/01/19 06:02:29;;;;;;;373.63;151.60;;;;;;;;;;5045574;28;20257;-51
2024/01/19 06:04:55;;;;;;;361.07;147.40;;;;;;;;;;5051611;28;20190;-50
2024/01/19 06:07:23;;;;;;;345.93;139.90;;;;;;;;;;5053148;28;20735;-49
2024/01/19 06:09:49;;;;;;;326.33;132.67;;;;;;;;;;5061242;28;20738;-51
2024/01/19 06:12:15;;;;;;;310.00;127.27;;;;;;;;;;5054701;28;20221;-50
2024/01/19 06:14:41;;;;;;;366.40;142.73;;;;;;;;;;5057791;28;20309;-51
2024/01/19 06:17:11;;;;;;;348.27;137.13;;;;;;;;;;5045101;28;20206;-51
2024/01/19 06:19:37;;;;;;;405.93;154.63;;;;;;;;;;5047250;28;20171;-51
2024/01/19 06:22:03;;;;;;;419.60;157.97;;;;;;;;;;5007559;28;20218;-51
2024/01/19 06:24:34;;;;;;;415.37;156.30;;;;;;;;;;5032124;28;20215;-50
2024/01/19 06:27:00;;;;;;;378.73;154.50;;;;;;;;;;5035471;28;20290;-51
2024/01/19 06:29:26;;;;;;;386.57;154.73;;;;;;;;;;5045483;28;20241;-50
2024/01/19 06:31:52;;;;;;;325.97;132.70;;;;;;;;;;5052358;28;20215;-51
2024/01/19 06:34:18;;;;;;;304.90;123.33;;;;;;;;;;5049145;28;20257;-51
2024/01/19 06:36:45;;;;;;;354.40;144.93;;;;;;;;;;5033041;28;20604;-50
2024/01/19 06:39:11;;;;;;;395.43;162.40;;;;;;;;;;5028274;28;20218;-51
2024/01/19 06:41:44;;;;;;;407.90;166.10;;;;;;;;;;5037571;28;20230;-50
2024/01/19 06:44:10;;;;;;;384.70;154.10;;;;;;;;;;5038086;28;20231;-51
2024/01/19 06:46:36;;;;;;;374.87;153.10;;;;;;;;;;5042943;28;20252;-50
2024/01/19 06:49:02;;;;;;;343.43;138.03;;;;;;;;;;5040180;28;20230;-50
2024/01/19 06:51:28;;;;;;;342.87;138.33;;;;;;;;;;5046276;28;20744;-50
2024/01/19 06:53:57;;;;;;;297.60;120.20;;;;;;;;;;5039244;28;20260;-51
2024/01/19 06:56:23;;;;;;;323.97;129.83;;;;;;;;;;5051929;28;20214;-51
2024/01/19 06:58:49;;;;;;;391.37;156.60;;;;;;;;;;5035411;28;20270;-50
2024/01/19 07:01:15;;;;;;;364.77;143.40;;;;;;;;;;5036738;28;20772;-50
2024/01/19 07:03:41;;;;;;;412.67;171.63;;;;;;;;;;5039796;28;20344;-50
2024/01/19 07:06:07;;;;;;;337.87;137.63;;;;;;;;;;5044710;28;20211;-52
2024/01/19 07:08:33;;;;;;;329.37;130.77;;;;;;;;;;5056561;28;20223;-51
2024/01/19 07:10:59;;;;;;;352.97;140.30;;;;;;;;;;5049990;28;20186;-53
2024/01/19 07:13:25;;;;;;;342.43;136.80;;;;;;;;;;5052709;28;20445;-50
2024/01/19 07:15:51;;;;;;;349.30;139.23;;;;;;;;;;5045331;28;20219;-52
2024/01/19 07:18:17;;;;;;;332.83;131.73;;;;;;;;;;5051795;28;20825;-52
2024/01/19 07:20:43;;;;;;;355.90;141.10;;;;;;;;;;5055848;28;20688;-51
2024/01/19 07:23:09;;;;;;;335.77;133.60;;;;;;;;;;5049919;28;20207;-51
2024/01/19 07:25:35;;;;;;;353.57;139.03;;;;;;;;;;5052541;28;22367;-51
2024/01/19 07:28:02;;;;;;;386.30;159.60;;;;;;;;;;5047928;28;20233;-51
2024/01/19 07:30:27;;;;;;;344.00;136.73;;;;;;;;;;5051619;28;20329;-51
2024/01/19 07:32:53;;;;;;;405.80;166.57;;;;;;;;;;5050117;28;20211;-50
2024/01/19 07:35:19;;;;;;;337.93;132.97;;;;;;;;;;5049220;28;20568;-51
2024/01/19 07:37:45;;;;;;;348.57;136.20;;;;;;;;;;5057058;28;20207;-51
2024/01/19 07:40:12;;;;;;;341.97;133.10;;;;;;;;;;5058539;28;20225;-51
2024/01/19 07:42:38;;;;;;;362.50;143.70;;;;;;;;;;5037608;28;20304;-51
2024/01/19 07:45:04;;;;;;;350.97;139.23;;;;;;;;;;5048564;28;20298;-51
2024/01/19 07:47:32;;;;;;;351.37;139.37;;;;;;;;;;5055495;28;20253;-51
2024/01/19 07:49:58;;;;;;;380.50;151.73;;;;;;;;;;5054003;28;20531;-51
2024/01/19 07:52:24;;;;;;;350.60;138.83;;;;;;;;;;5052538;28;20240;-51
2024/01/19 07:54:49;;;;;;;353.40;143.07;;;;;;;;;;5052471;28;20304;-51
2024/01/19 07:57:15;;;;;;;331.90;131.27;;;;;;;;;;5052776;28;20273;-53
2024/01/19 07:59:43;;;;;;;386.80;156.50;;;;;;;;;;5042235;28;20257;-52
2024/01/19 08:02:09;;;;;;;361.03;144.53;;;;;;;;;;5033846;28;20202;-51
2024/01/19 08:04:35;;;;;;;337.07;133.33;;;;;;;;;;5040605;28;20179;-51
2024/01/19 08:07:02;;;;;;;341.27;133.73;;;;;;;;;;5056766;28;20555;-51
2024/01/19 08:09:28;;;;;;;360.00;143.07;;;;;;;;;;5059656;28;20222;-52
2024/01/19 08:11:53;;;;;;;342.57;140.27;;;;;;;;;;5033292;28;20657;-51
2024/01/19 08:14:20;;;;;;;341.73;134.80;;;;;;;;;;5055414;28;20226;-51
2024/01/19 08:16:46;;;;;;;453.13;188.97;;;;;;;;;;5035322;28;20242;-52
2024/01/19 08:19:12;;;;;;;328.83;129.03;;;;;;;;;;5034969;28;20210;-51
2024/01/19 08:21:44;;;;;;;358.77;140.20;;;;;;;;;;5041897;28;20215;-52
2024/01/19 08:24:12;;;;;;;360.40;140.40;;;;;;;;;;5044152;28;20246;-52
2024/01/19 08:26:38;;;;;;;335.40;133.40;;;;;;;;;;5043248;28;20246;-51
2024/01/19 08:29:04;;;;;;;335.63;131.93;;;;;;;;;;5043303;28;20568;-52
2024/01/19 08:31:33;;;;;;;341.40;134.00;;;;;;;;;;5032309;28;20186;-51
2024/01/19 08:33:59;;;;;;;353.23;139.80;;;;;;;;;;5039200;28;21561;-52
2024/01/19 08:36:24;;;;;;;413.73;166.67;;;;;;;;;;5032759;28;20897;-52
2024/01/19 08:38:51;;;;;;;415.93;166.03;;;;;;;;;;5022963;28;20222;-52
2024/01/19 08:41:17;;;;;;;322.10;129.33;;;;;;;;;;5036193;28;20538;-52
2024/01/19 08:43:43;;;;;;;356.10;139.63;;;;;;;;;;5034718;28;20217;-51
2024/01/19 08:46:09;;;;;;;377.23;152.90;;;;;;;;;;5034725;28;20732;-51
2024/01/19 08:48:35;;;;;;;354.70;140.13;;;;;;;;;;5034432;28;21014;-52
2024/01/19 08:51:01;;;;;;;386.50;154.67;;;;;;;;;;5036249;28;20211;-52
2024/01/19 08:53:27;;;;;;;404.07;160.73;;;;;;;;;;5030563;28;20938;-51
2024/01/19 08:55:53;;;;;;;383.20;159.13;;;;;;;;;;5035226;28;20175;-52
2024/01/19 08:58:20;;;;;;;371.10;146.70;;;;;;;;;;5025699;28;20694;-53
2024/01/19 09:00:45;;;;;;;394.10;157.30;;;;;;;;;;5030929;28;20218;-52
2024/01/19 09:03:11;;;;;;;346.47;136.30;;;;;;;;;;5039752;28;20219;-51
2024/01/19 09:05:37;;;;;;;347.97;135.60;;;;;;;;;;5029579;28;21991;-51
2024/01/19 09:08:03;;;;;;;377.33;149.93;;;;;;;;;;5030895;28;20612;-53
2024/01/19 09:10:29;;;;;;;374.43;148.43;;;;;;;;;;5037691;28;20671;-53
2024/01/19 09:12:55;;;;;;;371.57;146.47;;;;;;;;;;5035159;28;20207;-53
2024/01/19 09:15:21;;;;;;;394.53;154.97;;;;;;;;;;5024284;28;20313;-53
2024/01/19 09:17:47;;;;;;;415.70;165.43;;;;;;;;;;5033570;28;20626;-53
2024/01/19 09:20:13;;;;;;;377.97;149.13;;;;;;;;;;5031916;28;20183;-54
2024/01/19 09:22:39;;;;;;;348.13;134.03;;;;;;;;;;5034789;28;20222;-52
2024/01/19 09:25:06;;;;;;;372.67;145.10;;;;;;;;;;5039604;28;20214;-54
2024/01/19 09:27:32;;;;;;;452.23;182.17;;;;;;;;;;5039358;28;20650;-53
2024/01/19 09:29:57;;;;;;;401.87;161.73;;;;;;;;;;5026938;28;20301;-53
2024/01/19 09:32:23;;;;;;;400.97;157.40;;;;;;;;;;5031684;28;20227;-53
2024/01/19 09:34:49;;;;;;;381.07;147.27;;;;;;;;;;5036126;28;20229;-52
2024/01/19 09:37:15;;;;;;;410.53;157.90;;;;;;;;;;5029188;28;20517;-54
2024/01/19 09:39:41;;;;;;;342.13;132.30;;;;;;;;;;5045809;28;20752;-53
2024/01/19 09:42:24;;;;;;;401.97;157.60;;;;;;;;;;5032097;28;20217;-52
2024/01/19 09:45:01;;;;;;;434.40;172.90;;;;;;;;;;5041788;28;20210;-53
2024/01/19 09:47:31;;;;;;;383.37;146.90;;;;;;;;;;5041391;28;20364;-54
2024/01/19 09:49:57;;;;;;;430.17;170.27;;;;;;;;;;5026870;28;20255;-54
2024/01/19 09:52:42;;;;;;;369.03;141.30;;;;;;;;;;5037454;28;20212;-54
2024/01/19 09:55:11;;;;;;;361.93;142.63;;;;;;;;;;5035573;28;20211;-53
2024/01/19 09:57:45;;;;;;;385.27;151.70;;;;;;;;;;5041128;28;20325;-52
2024/01/19 10:00:20;;;;;;;417.17;166.50;;;;;;;;;;5040196;28;20218;-53
2024/01/19 10:02:47;;;;;;;352.50;136.00;;;;;;;;;;5040493;28;20210;-54
2024/01/19 10:05:14;;;;;;;395.57;154.67;;;;;;;;;;5038638;28;20283;-53
2024/01/19 10:07:41;;;;;;;431.87;171.97;;;;;;;;;;5032270;28;20765;-53
2024/01/19 10:10:08;;;;;;;362.60;137.40;;;;;;;;;;5042992;28;20230;-54
2024/01/19 10:12:34;;;;;;;347.90;135.97;;;;;;;;;;5037076;28;20219;-54
2024/01/19 10:15:00;;;;;;;399.73;161.93;;;;;;;;;;5039577;28;20215;-53
2024/01/19 10:17:26;;;;;;;384.50;149.47;;;;;;;;;;5037732;28;20306;-53
2024/01/19 10:19:52;;;;;;;408.90;158.23;;;;;;;;;;5031682;28;20549;-53
2024/01/19 10:22:26;;;;;;;376.13;143.80;;;;;;;;;;5037916;28;20291;-53
2024/01/19 10:25:02;;;;;;;433.47;172.60;;;;;;;;;;5041082;28;20616;-54
2024/01/19 10:27:44;;;;;;;341.57;129.33;;;;;;;;;;5051732;28;20241;-53
2024/01/19 10:30:12;;;;;;;370.40;143.93;;;;;;;;;;5052175;28;20217;-54
2024/01/19 10:32:39;;;;;;;361.10;143.40;;;;;;;;;;5050827;28;20341;-53
2024/01/19 10:35:09;;;;;;;395.97;157.07;;;;;;;;;;5052466;28;20249;-53
2024/01/19 10:37:35;;;;;;;364.23;138.00;;;;;;;;;;5056714;28;20214;-53
2024/01/19 10:40:13;;;;;;;374.77;143.77;;;;;;;;;;5054786;28;20215;-53
2024/01/19 10:42:40;;;;;;;364.73;139.47;;;;;;;;;;5055903;28;20213;-54
2024/01/19 10:45:16;;;;;;;381.23;142.90;;;;;;;;;;5048956;28;20699;-53
2024/01/19 10:47:43;;;;;;;440.00;163.63;;;;;;;;;;5037705;28;20231;-53
2024/01/19 10:50:11;;;;;;;361.60;136.90;;;;;;;;;;5050621;28;20256;-54
2024/01/19 10:52:39;;;;;;;371.10;141.27;;;;;;;;;;5055936;28;20180;-52
2024/01/19 10:55:05;;;;;;;380.57;148.97;;;;;;;;;;5055165;28;20213;-52
2024/01/19 10:57:31;;;;;;;353.17;135.57;;;;;;;;;;5057099;28;20214;-54
2024/01/19 10:59:57;;;;;;;374.30;141.73;;;;;;;;;;5058456;28;20320;-53
2024/01/19 11:02:24;;;;;;;358.13;138.87;;;;;;;;;;5046492;28;20214;-52
2024/01/19 11:04:51;;;;;;;388.40;149.60;;;;;;;;;;5043818;28;20187;-54
2024/01/19 11:07:17;;;;;;;407.57;160.20;;;;;;;;;;5038754;28;20241;-53
2024/01/19 11:09:43;;;;;;;388.20;149.90;;;;;;;;;;5038629;28;20234;-54
2024/01/19 11:12:11;;;;;;;465.07;188.37;;;;;;;;;;5038619;28;21455;-53
2024/01/19 11:14:38;;;;;;;373.97;142.00;;;;;;;;;;5045420;28;20214;-55
2024/01/19 11:17:04;;;;;;;386.70;148.17;;;;;;;;;;5045244;28;20280;-54
2024/01/19 11:19:31;;;;;;;459.87;182.13;;;;;;;;;;5037980;28;20556;-53
2024/01/19 11:21:57;;;;;;;404.70;157.80;;;;;;;;;;5040457;28;20562;-53
2024/01/19 11:24:25;;;;;;;378.53;146.70;;;;;;;;;;5029897;28;20222;-54
2024/01/19 11:27:07;;;;;;;414.90;167.13;;;;;;;;;;5036690;28;20219;-53
2024/01/19 11:29:34;;;;;;;427.40;169.90;;;;;;;;;;5040092;28;20245;-54
2024/01/19 11:32:00;;;;;;;427.83;165.90;;;;;;;;;;5040677;28;22104;-52
2024/01/19 11:34:41;;;;;;;405.87;162.53;;;;;;;;;;5029977;28;20175;-53
2024/01/19 11:37:08;;;;;;;381.30;144.73;;;;;;;;;;5040662;28;20223;-53
2024/01/19 11:39:38;;;;;;;409.87;163.20;;;;;;;;;;5028965;28;20214;-53
2024/01/19 11:42:04;;;;;;;436.13;174.70;;;;;;;;;;5037429;28;20218;-53
2024/01/19 11:44:42;;;;;;;356.03;135.97;;;;;;;;;;5043674;28;20554;-53
2024/01/19 11:47:08;;;;;;;380.63;143.40;;;;;;;;;;5037302;28;20294;-53
2024/01/19 11:49:38;;;;;;;399.00;154.43;;;;;;;;;;5040580;28;20219;-53
2024/01/19 11:52:24;;;;;;;379.03;146.73;;;;;;;;;;5045827;28;20589;-53
2024/01/19 11:54:50;;;;;;;383.70;147.53;;;;;;;;;;5045711;28;20230;-53
2024/01/19 11:57:17;;;;;;;411.60;159.53;;;;;;;;;;5037456;28;20214;-52
2024/01/19 11:59:43;;;;;;;394.10;151.73;;;;;;;;;;5042689;28;20223;-52
2024/01/19 12:02:20;;;;;;;387.07;148.87;;;;;;;;;;5041707;28;20191;-52
2024/01/19 12:04:47;;;;;;;444.83;182.53;;;;;;;;;;5036496;28;20179;-54
2024/01/19 12:07:17;;;;;;;402.17;155.60;;;;;;;;;;5038739;28;21525;-53
2024/01/19 12:09:43;;;;;;;359.57;133.77;;;;;;;;;;5040755;28;20558;-53
2024/01/19 12:12:09;;;;;;;436.07;168.80;;;;;;;;;;5042995;28;20223;-53
2024/01/19 12:14:35;;;;;;;374.03;140.90;;;;;;;;;;5045027;28;20215;-54
2024/01/19 12:17:01;;;;;;;369.50;138.90;;;;;;;;;;5041461;28;20264;-53
2024/01/19 12:19:27;;;;;;;353.73;134.33;;;;;;;;;;5042030;28;20182;-53
2024/01/19 12:21:56;;;;;;;399.37;153.53;;;;;;;;;;5033661;28;20781;-53
2024/01/19 12:24:22;;;;;;;349.50;133.97;;;;;;;;;;5036422;28;20261;-54
2024/01/19 12:26:52;;;;;;;413.53;164.17;;;;;;;;;;5037711;28;20223;-53
2024/01/19 12:29:27;;;;;;;388.07;152.33;;;;;;;;;;5036273;28;21038;-54
2024/01/19 12:32:07;;;;;;;370.67;139.73;;;;;;;;;;5047217;28;20186;-53
2024/01/19 12:34:33;;;;;;;411.53;162.60;;;;;;;;;;5038785;28;20218;-54
2024/01/19 12:36:59;;;;;;;347.77;128.87;;;;;;;;;;5043491;28;20700;-53
2024/01/19 12:39:27;;;;;;;423.87;166.67;;;;;;;;;;5029044;28;20211;-53
2024/01/19 12:42:00;;;;;;;375.13;144.40;;;;;;;;;;5043602;28;20225;-53
2024/01/19 12:44:26;;;;;;;395.77;153.90;;;;;;;;;;5038367;28;20578;-54
2024/01/19 12:46:52;;;;;;;410.90;160.80;;;;;;;;;;5032715;28;20211;-54
2024/01/19 12:49:18;;;;;;;400.30;154.87;;;;;;;;;;5041756;28;20258;-54
2024/01/19 12:51:44;;;;;;;424.60;169.87;;;;;;;;;;5037285;28;20240;-53
2024/01/19 12:54:12;;;;;;;429.77;169.83;;;;;;;;;;5038627;28;20573;-52
2024/01/19 12:56:38;;;;;;;359.90;135.37;;;;;;;;;;5036671;28;20215;-54
2024/01/19 12:59:12;;;;;;;402.60;159.30;;;;;;;;;;5039116;28;20604;-54
2024/01/19 13:01:47;;;;;;;400.83;153.07;;;;;;;;;;5032461;28;20187;-53
2024/01/19 13:04:17;;;;;;;380.53;149.13;;;;;;;;;;5041370;28;20552;-53
2024/01/19 13:06:44;;;;;;;439.93;179.30;;;;;;;;;;5033972;28;21055;-53
2024/01/19 13:09:10;;;;;;;408.83;161.77;;;;;;;;;;5026219;28;20227;-54
2024/01/19 13:11:36;;;;;;;425.87;165.23;;;;;;;;;;5033877;28;20681;-53
2024/01/19 13:14:03;;;;;;;411.10;161.00;;;;;;;;;;5036712;28;20206;-53
2024/01/19 13:16:29;;;;;;;445.07;177.73;;;;;;;;;;5045518;28;20194;-54
2024/01/19 13:19:10;;;;;;;430.40;169.13;;;;;;;;;;5042754;28;20309;-54
2024/01/19 13:21:36;;;;;;;440.67;176.63;;;;;;;;;;5040691;28;20219;-54
2024/01/19 13:24:02;;;;;;;419.73;159.70;;;;;;;;;;5031163;28;20670;-53
2024/01/19 13:26:30;;;;;;;409.07;153.83;;;;;;;;;;5039945;28;20240;-54
2024/01/19 13:28:56;;;;;;;414.90;161.37;;;;;;;;;;5034669;28;20207;-53
2024/01/19 13:31:22;;;;;;;411.30;161.97;;;;;;;;;;5037429;28;20215;-53
2024/01/19 13:33:48;;;;;;;395.57;157.17;;;;;;;;;;5040874;28;20943;-54
2024/01/19 13:36:15;;;;;;;387.57;154.07;;;;;;;;;;5052660;28;20215;-53
2024/01/19 13:38:41;;;;;;;437.20;175.13;;;;;;;;;;5040928;28;20700;-53
2024/01/19 13:41:07;;;;;;;433.17;173.07;;;;;;;;;;5044758;28;20187;-53
2024/01/19 13:43:34;;;;;;;429.20;167.30;;;;;;;;;;5045658;28;20194;-53
2024/01/19 13:46:01;;;;;;;432.00;168.77;;;;;;;;;;5045395;28;20214;-54
2024/01/19 13:48:26;;;;;;;400.67;152.80;;;;;;;;;;5053987;28;20223;-54
2024/01/19 13:50:52;;;;;;;418.40;162.73;;;;;;;;;;5039160;28;20742;-53